Welcome to the New NWS' Forecast!
Most changes are behind the scenes, but click here for differences you might notice.

Terminal Aerodrome Forecast (TAF)

Issued by National Weather Service (NWS)

                            
098 
FTUS42 KMFL 132339
TAFMIA
TAF
KMIA 132339Z 1400/1506 13010KT P6SM FEW030 SCT120 SCT250
     FM140300 VRB04KT P6SM SCT030 SCT200
     FM141500 12008KT P6SM VCSH SCT025 BKN050 BKN250
     FM141800 14011KT P6SM SCT030 SCT050 BKN250
     FM150200 10006KT P6SM FEW050 SCT250=